Time;durP1;ratioP1;P1;durP2;ratioP2;P2;SDS_P1;SDS_P2;PMS_P1;PMS_P2;Temp;Humidity;BMP_temperature;BMP_pressure;BME280_temperature;BME280_humidity;BME280_pressure;Samples;Min_cycle;Max_cycle;Signal;HPM_P1;HPM_P2
2021/01/05 05:02:21;;;;;;;32.27;18.00;;;2.70;99.90;;;;;;5207834;23;20549;-66
2021/01/05 05:04:55;;;;;;;28.63;19.50;;;2.70;99.90;;;;;;4975949;28;20450;-66
2021/01/05 05:07:33;;;;;;;26.43;18.30;;;2.80;99.90;;;;;;4975760;28;20466;-67
2021/01/05 05:10:03;;;;;;;35.30;19.90;;;2.70;99.90;;;;;;4975910;28;20463;-67
2021/01/05 05:12:40;;;;;;;29.87;20.43;;;2.70;99.90;;;;;;4975720;28;20475;-66
2021/01/05 05:15:41;;;;;;;24.90;17.70;;;2.70;99.90;;;;;;4975798;28;20449;-67
2021/01/05 05:21:23;;;;;;;27.83;18.70;;;2.80;99.90;;;;;;4977000;28;20474;-65
2021/01/05 05:24:09;;;;;;;25.50;18.47;;;2.80;99.90;;;;;;4975568;28;20453;-66
2021/01/05 05:26:40;;;;;;;26.67;19.03;;;2.90;99.90;;;;;;4975447;28;20435;-67
2021/01/05 05:29:18;;;;;;;26.07;18.23;;;2.90;99.90;;;;;;4975511;28;20458;-66
2021/01/05 05:31:48;;;;;;;28.57;19.60;;;3.00;99.90;;;;;;4975404;28;20470;-66
2021/01/05 05:34:23;;;;;;;26.90;18.70;;;2.90;99.90;;;;;;4975649;28;20438;-66
2021/01/05 05:37:03;;;;;;;24.97;18.00;;;3.00;99.90;;;;;;4975424;28;20450;-66
2021/01/05 05:40:09;;;;;;;26.13;19.43;;;2.90;99.90;;;;;;4975561;28;20443;-67
2021/01/05 05:42:56;;;;;;;23.17;17.23;;;3.00;99.90;;;;;;4975470;28;20478;-66
2021/01/05 05:45:27;;;;;;;23.37;17.80;;;2.90;99.90;;;;;;4975315;28;20461;-65
2021/01/05 05:48:00;;;;;;;27.73;18.50;;;2.90;99.90;;;;;;4975449;28;20439;-66
2021/01/05 05:50:36;;;;;;;23.37;18.03;;;2.90;99.90;;;;;;4975181;28;20459;-66
2021/01/05 05:53:10;;;;;;;24.10;18.23;;;2.90;99.90;;;;;;4975093;28;20530;-65
2021/01/05 05:55:45;;;;;;;23.60;17.10;;;2.90;99.90;;;;;;4975540;28;20439;-66
2021/01/05 05:58:16;;;;;;;27.13;19.00;;;2.90;99.90;;;;;;4975165;28;20913;-65
2021/01/05 06:00:47;;;;;;;25.80;18.37;;;2.80;99.90;;;;;;4975303;28;20485;-66
2021/01/05 06:03:16;;;;;;;26.53;18.17;;;2.80;99.90;;;;;;4978906;28;20570;-66
2021/01/05 06:05:43;;;;;;;26.03;18.00;;;2.90;99.90;;;;;;4991870;28;20458;-66
2021/01/05 06:08:12;;;;;;;26.13;17.50;;;2.80;99.90;;;;;;4990976;28;20454;-66
2021/01/05 06:10:38;;;;;;;25.67;17.10;;;2.90;99.90;;;;;;4991375;28;20486;-67
2021/01/05 06:13:05;;;;;;;24.53;17.43;;;2.90;99.90;;;;;;4985827;28;20459;-67
2021/01/05 06:15:33;;;;;;;23.13;17.13;;;2.90;99.90;;;;;;4974608;28;20914;-67
2021/01/05 06:18:00;;;;;;;31.60;19.80;;;2.90;99.90;;;;;;4975222;28;20455;-67
2021/01/05 06:20:27;;;;;;;23.10;16.60;;;2.90;99.90;;;;;;4975167;28;20450;-66
2021/01/05 06:22:54;;;;;;;22.10;16.63;;;2.90;99.90;;;;;;4975114;28;20455;-66
2021/01/05 06:25:21;;;;;;;27.47;18.07;;;3.00;99.90;;;;;;4975092;28;20465;-66
2021/01/05 06:27:48;;;;;;;26.83;17.70;;;2.90;99.90;;;;;;4978529;28;20988;-66
2021/01/05 06:30:15;;;;;;;24.53;17.10;;;2.90;99.90;;;;;;4978777;28;20481;-65
2021/01/05 06:32:42;;;;;;;22.83;16.90;;;2.90;99.90;;;;;;4978284;28;20509;-65
2021/01/05 06:35:10;;;;;;;22.90;17.43;;;3.00;99.90;;;;;;4978369;28;20506;-65
2021/01/05 06:37:36;;;;;;;25.33;16.57;;;3.00;99.90;;;;;;4979977;28;20457;-66
2021/01/05 06:40:04;;;;;;;26.57;16.57;;;3.00;99.90;;;;;;4978502;28;20439;-65
2021/01/05 06:42:31;;;;;;;24.57;16.63;;;3.00;99.90;;;;;;4978379;28;20496;-65
2021/01/05 06:44:58;;;;;;;23.00;16.90;;;3.00;99.90;;;;;;4978484;28;20458;-67
2021/01/05 06:47:24;;;;;;;21.17;16.43;;;3.10;99.90;;;;;;4979816;28;20458;-65
2021/01/05 06:49:50;;;;;;;22.10;16.83;;;3.10;99.90;;;;;;4978346;28;20474;-65
2021/01/05 06:52:16;;;;;;;23.60;17.73;;;3.10;99.90;;;;;;4978679;28;20481;-65
2021/01/05 06:54:43;;;;;;;24.70;16.70;;;3.10;99.90;;;;;;4978276;28;20510;-65
2021/01/05 06:57:10;;;;;;;22.70;15.97;;;3.00;99.90;;;;;;4993190;28;20949;-66
2021/01/05 06:59:36;;;;;;;19.73;14.90;;;3.10;99.90;;;;;;4994032;28;20450;-66
2021/01/05 07:02:04;;;;;;;23.73;15.63;;;2.90;99.90;;;;;;4983051;28;20972;-66
2021/01/05 07:04:31;;;;;;;22.50;16.00;;;3.00;99.90;;;;;;4979247;28;20458;-67
2021/01/05 07:06:58;;;;;;;21.23;16.37;;;3.10;99.90;;;;;;4979328;28;20466;-67
2021/01/05 07:09:24;;;;;;;20.23;15.73;;;3.10;99.90;;;;;;4978987;28;20460;-67
2021/01/05 07:11:51;;;;;;;22.10;16.70;;;3.00;99.90;;;;;;4982926;28;20485;-65
2021/01/05 07:14:20;;;;;;;19.37;15.03;;;3.00;99.90;;;;;;4984670;28;20454;-66
2021/01/05 07:16:46;;;;;;;22.10;16.00;;;3.00;99.90;;;;;;4982502;28;20462;-67
2021/01/05 07:19:13;;;;;;;21.83;16.13;;;3.00;99.90;;;;;;4979287;28;20458;-67
2021/01/05 07:21:39;;;;;;;20.73;15.37;;;3.00;99.90;;;;;;4978181;28;20474;-67
2021/01/05 07:24:07;;;;;;;23.77;16.30;;;3.00;99.90;;;;;;4978358;28;20482;-66
2021/01/05 07:26:33;;;;;;;19.53;14.30;;;3.00;99.90;;;;;;4978118;28;20455;-66
2021/01/05 07:29:00;;;;;;;21.53;15.80;;;3.00;99.90;;;;;;4977976;28;20517;-66
2021/01/05 07:31:27;;;;;;;21.33;15.70;;;3.00;99.90;;;;;;4977656;28;20490;-65
2021/01/05 07:33:53;;;;;;;21.23;15.10;;;2.90;99.90;;;;;;4977749;28;20462;-67
2021/01/05 07:36:25;;;;;;;22.07;14.90;;;2.90;99.90;;;;;;4977611;28;20458;-66
2021/01/05 07:38:51;;;;;;;21.63;16.00;;;2.90;99.90;;;;;;4976729;28;20929;-66
2021/01/05 07:41:18;;;;;;;22.37;14.40;;;2.80;99.90;;;;;;4977468;28;20497;-66
2021/01/05 07:43:44;;;;;;;21.50;15.47;;;2.80;99.90;;;;;;4977432;28;20454;-66
2021/01/05 07:46:10;;;;;;;20.70;15.37;;;2.80;99.90;;;;;;4977735;28;20847;-66
2021/01/05 07:48:37;;;;;;;18.70;15.37;;;2.90;99.90;;;;;;4977415;28;20513;-67
2021/01/05 07:51:06;;;;;;;21.93;15.97;;;2.90;99.90;;;;;;4977739;28;20482;-65
2021/01/05 07:53:32;;;;;;;21.13;15.43;;;2.80;99.90;;;;;;4977280;28;20459;-66
2021/01/05 07:55:59;;;;;;;19.90;15.40;;;2.90;99.90;;;;;;4977193;28;20822;-65
2021/01/05 07:58:25;;;;;;;22.57;15.50;;;2.90;99.90;;;;;;4977085;28;20455;-66
2021/01/05 08:00:51;;;;;;;19.20;15.43;;;2.90;99.90;;;;;;4976687;28;21035;-67
2021/01/05 08:03:17;;;;;;;21.97;15.57;;;2.90;99.90;;;;;;4977170;28;20450;-67
2021/01/05 08:05:45;;;;;;;20.77;15.53;;;2.80;99.90;;;;;;4976741;28;20941;-67
2021/01/05 08:08:11;;;;;;;19.47;15.00;;;2.90;99.90;;;;;;4977159;28;20454;-67
2021/01/05 08:10:39;;;;;;;24.00;16.13;;;2.80;99.90;;;;;;4976925;28;20533;-67
2021/01/05 08:13:07;;;;;;;22.63;16.47;;;2.80;99.90;;;;;;4976828;28;20462;-67
2021/01/05 08:15:33;;;;;;;23.07;17.60;;;2.80;99.90;;;;;;4977125;28;20525;-67
2021/01/05 08:18:00;;;;;;;24.27;17.93;;;2.70;99.90;;;;;;4977072;28;20443;-67
2021/01/05 08:20:28;;;;;;;21.50;16.23;;;2.70;99.90;;;;;;4976735;28;20458;-68
2021/01/05 08:22:55;;;;;;;23.87;17.23;;;2.70;99.90;;;;;;4976392;28;20949;-67
2021/01/05 08:25:22;;;;;;;25.63;17.10;;;2.70;99.90;;;;;;4976831;28;20455;-66
2021/01/05 08:27:50;;;;;;;25.40;18.30;;;2.70;99.90;;;;;;4976488;28;20509;-66
2021/01/05 08:30:20;;;;;;;20.53;16.50;;;2.70;99.90;;;;;;4976151;28;20892;-66
2021/01/05 08:32:46;;;;;;;28.40;18.07;;;2.70;99.90;;;;;;4976298;28;21020;-66
2021/01/05 08:35:14;;;;;;;23.57;17.60;;;2.80;99.90;;;;;;4976686;28;20482;-68
2021/01/05 08:37:41;;;;;;;24.73;16.77;;;2.90;99.90;;;;;;4976132;28;20458;-66
2021/01/05 08:40:10;;;;;;;25.03;17.40;;;2.90;99.90;;;;;;4976471;28;20458;-66
2021/01/05 08:42:37;;;;;;;24.80;18.53;;;2.90;99.90;;;;;;4976283;28;20482;-67
2021/01/05 08:45:04;;;;;;;26.20;18.00;;;2.90;99.90;;;;;;4976428;28;20492;-66
2021/01/05 08:47:30;;;;;;;24.57;17.30;;;2.90;99.90;;;;;;4976461;28;20439;-66
2021/01/05 08:49:56;;;;;;;24.97;17.90;;;2.90;99.90;;;;;;4975556;28;20798;-65
2021/01/05 08:52:22;;;;;;;24.50;17.00;;;2.90;99.90;;;;;;4975489;28;20478;-65
2021/01/05 08:54:49;;;;;;;25.57;18.20;;;2.90;99.90;;;;;;4976368;28;20478;-65
2021/01/05 08:57:16;;;;;;;25.77;18.23;;;3.00;99.90;;;;;;4976583;28;20486;-66
2021/01/05 08:59:42;;;;;;;25.27;18.70;;;3.00;99.90;;;;;;4976110;28;20451;-65
2021/01/05 09:02:08;;;;;;;25.13;18.00;;;3.10;99.90;;;;;;4976364;28;20541;-66
2021/01/05 09:04:35;;;;;;;25.67;19.17;;;3.00;99.90;;;;;;4980544;28;20459;-64
2021/01/05 09:07:01;;;;;;;24.13;17.67;;;2.90;99.90;;;;;;4980968;28;20459;-66
2021/01/05 09:09:28;;;;;;;26.00;18.90;;;3.00;99.90;;;;;;4977948;28;20458;-67
2021/01/05 09:11:56;;;;;;;23.53;18.73;;;2.90;99.90;;;;;;4975746;28;20981;-66
2021/01/05 09:14:23;;;;;;;25.93;18.57;;;2.90;99.90;;;;;;4976338;28;20462;-66
2021/01/05 09:16:56;;;;;;;25.07;17.87;;;2.90;99.90;;;;;;4976161;28;20872;-67
2021/01/05 09:19:23;;;;;;;25.57;18.13;;;3.00;99.90;;;;;;4975688;28;20898;-66
2021/01/05 09:21:49;;;;;;;24.77;17.57;;;2.90;99.90;;;;;;4975176;28;20474;-67
2021/01/05 09:24:15;;;;;;;24.60;17.60;;;2.90;99.90;;;;;;4976196;28;20810;-68
2021/01/05 09:26:42;;;;;;;25.03;18.33;;;2.90;99.90;;;;;;4975838;28;20458;-66
2021/01/05 09:29:09;;;;;;;29.97;18.93;;;2.90;99.90;;;;;;4975733;28;20461;-67
2021/01/05 09:31:41;;;;;;;26.53;17.37;;;3.00;99.90;;;;;;4975452;28;20537;-66
2021/01/05 09:34:07;;;;;;;24.10;17.70;;;3.10;99.90;;;;;;4975700;28;20443;-65
2021/01/05 09:36:35;;;;;;;23.40;17.33;;;3.20;99.90;;;;;;4976010;28;20454;-67
2021/01/05 09:39:03;;;;;;;26.43;17.63;;;3.20;99.90;;;;;;4979505;28;20968;-67
2021/01/05 09:41:33;;;;;;;23.70;17.10;;;3.20;99.90;;;;;;4978980;28;20467;-66
2021/01/05 09:43:59;;;;;;;24.10;18.53;;;3.20;99.90;;;;;;4975271;28;20462;-67
2021/01/05 09:46:26;;;;;;;23.03;16.77;;;3.30;99.90;;;;;;4975566;28;20829;-66
2021/01/05 09:48:53;;;;;;;23.10;17.07;;;3.30;99.90;;;;;;4975424;28;20454;-66
2021/01/05 09:51:23;;;;;;;24.10;17.30;;;3.20;99.90;;;;;;4975017;28;20490;-68
2021/01/05 09:53:50;;;;;;;25.33;17.63;;;3.30;99.90;;;;;;4975138;28;20918;-67
2021/01/05 09:56:16;;;;;;;22.37;16.87;;;3.30;99.90;;;;;;4975350;28;20454;-67
2021/01/05 09:58:43;;;;;;;25.60;17.60;;;3.30;99.90;;;;;;4974770;28;20454;-66
2021/01/05 10:01:09;;;;;;;26.90;17.70;;;3.30;99.90;;;;;;4976501;28;20474;-67
2021/01/05 10:03:35;;;;;;;22.87;18.17;;;3.20;99.90;;;;;;4980553;28;20461;-67
2021/01/05 10:06:02;;;;;;;23.27;18.30;;;3.20;99.90;;;;;;4979673;28;20461;-67
2021/01/05 10:08:28;;;;;;;23.83;17.07;;;3.30;99.90;;;;;;4979246;28;20459;-66
2021/01/05 10:10:54;;;;;;;22.87;16.47;;;3.40;99.90;;;;;;4979042;28;20483;-66
2021/01/05 10:13:21;;;;;;;24.97;17.80;;;3.30;99.90;;;;;;4979000;28;20462;-66
2021/01/05 10:15:47;;;;;;;27.83;18.10;;;3.40;99.90;;;;;;4979137;28;20455;-65
2021/01/05 10:18:13;;;;;;;23.37;16.10;;;3.40;99.90;;;;;;4979362;28;20461;-67
2021/01/05 10:20:39;;;;;;;25.40;17.80;;;3.40;99.90;;;;;;4978947;28;20470;-68
2021/01/05 10:23:06;;;;;;;28.43;19.40;;;3.40;99.90;;;;;;4978981;28;20816;-66
2021/01/05 10:25:33;;;;;;;27.23;20.07;;;3.40;99.90;;;;;;4978834;28;20454;-66
2021/01/05 10:27:59;;;;;;;24.57;18.00;;;3.40;99.90;;;;;;4978594;28;20458;-66
2021/01/05 10:30:26;;;;;;;26.50;18.37;;;3.40;99.90;;;;;;4978002;28;20524;-67
2021/01/05 10:32:52;;;;;;;25.50;18.27;;;3.50;99.90;;;;;;4979057;28;20455;-67
2021/01/05 10:35:21;;;;;;;22.47;17.30;;;3.50;99.90;;;;;;4978138;28;20455;-67
2021/01/05 10:37:48;;;;;;;23.63;17.33;;;3.50;99.90;;;;;;4978460;28;20458;-67
2021/01/05 10:40:17;;;;;;;24.00;17.83;;;3.50;99.90;;;;;;4978494;28;20454;-67
2021/01/05 10:42:45;;;;;;;20.70;16.50;;;3.50;99.90;;;;;;4980227;28;20454;-67
2021/01/05 10:45:14;;;;;;;22.23;16.90;;;3.60;99.90;;;;;;4979847;28;20454;-68
2021/01/05 10:47:40;;;;;;;24.30;18.40;;;3.60;99.90;;;;;;4980331;28;20458;-67
2021/01/05 10:50:08;;;;;;;23.47;17.47;;;3.50;99.90;;;;;;4979063;28;20474;-68
2021/01/05 10:52:34;;;;;;;23.00;17.00;;;3.50;99.90;;;;;;4978467;28;20814;-67
2021/01/05 10:55:01;;;;;;;22.33;16.73;;;3.60;99.90;;;;;;4978633;28;20454;-67
2021/01/05 10:57:28;;;;;;;22.70;17.07;;;3.90;99.90;;;;;;4979224;28;20457;-68
2021/01/05 10:59:54;;;;;;;25.17;18.33;;;3.90;99.90;;;;;;4979882;28;20458;-67
2021/01/05 11:02:20;;;;;;;23.77;17.60;;;3.80;99.90;;;;;;4978880;28;20533;-67
2021/01/05 11:04:46;;;;;;;21.73;16.00;;;3.80;99.90;;;;;;4978436;28;20493;-67
2021/01/05 11:07:16;;;;;;;20.83;16.10;;;3.90;99.90;;;;;;4978565;28;20489;-67
2021/01/05 11:09:43;;;;;;;24.20;16.73;;;3.90;99.90;;;;;;4978493;28;20241;-67
2021/01/05 11:12:12;;;;;;;21.67;15.77;;;3.90;99.90;;;;;;4977525;28;21000;-68
2021/01/05 11:14:41;;;;;;;24.80;17.67;;;4.10;99.90;;;;;;4979487;28;20494;-66
2021/01/05 11:17:08;;;;;;;24.20;16.70;;;4.20;99.90;;;;;;4979039;28;20465;-68
2021/01/05 11:19:35;;;;;;;25.57;17.53;;;4.20;99.90;;;;;;4978295;28;20462;-72
2021/01/05 11:22:03;;;;;;;21.80;17.03;;;4.20;99.90;;;;;;4978686;28;20474;-69
2021/01/05 11:24:30;;;;;;;20.37;15.80;;;4.20;99.90;;;;;;4979250;28;20458;-68
2021/01/05 11:26:58;;;;;;;22.40;17.20;;;4.20;99.90;;;;;;4978656;28;20455;-67
2021/01/05 11:29:25;;;;;;;22.40;17.00;;;4.30;99.90;;;;;;4978489;28;20458;-67
2021/01/05 11:31:56;;;;;;;18.57;14.57;;;4.20;99.90;;;;;;4979010;28;20490;-67
2021/01/05 11:34:22;;;;;;;23.13;17.53;;;4.20;99.90;;;;;;4978017;28;20465;-66
2021/01/05 11:36:49;;;;;;;26.27;17.57;;;4.20;99.90;;;;;;4978105;28;20461;-65
2021/01/05 11:39:15;;;;;;;22.73;15.53;;;4.20;99.90;;;;;;4978096;28;20954;-65
2021/01/05 11:41:45;;;;;;;23.60;17.53;;;4.00;99.90;;;;;;4977810;28;20471;-70
2021/01/05 11:44:12;;;;;;;23.77;16.77;;;4.10;99.90;;;;;;4978191;28;20443;-68
2021/01/05 11:46:38;;;;;;;21.97;16.57;;;4.00;99.90;;;;;;4978856;28;20471;-67
2021/01/05 11:49:05;;;;;;;23.40;16.50;;;4.00;99.90;;;;;;4978086;28;20450;-66
2021/01/05 11:51:34;;;;;;;21.50;15.90;;;4.00;99.90;;;;;;4978247;28;20838;-66
2021/01/05 11:54:01;;;;;;;21.30;14.87;;;4.10;99.90;;;;;;4978606;28;20421;-65
2021/01/05 11:56:29;;;;;;;22.20;16.40;;;4.10;99.90;;;;;;4978439;28;20454;-70
2021/01/05 11:58:56;;;;;;;24.70;18.03;;;4.00;99.90;;;;;;4978322;28;20818;-65
2021/01/05 12:01:23;;;;;;;21.67;16.00;;;4.00;99.90;;;;;;4978171;28;20478;-67
2021/01/05 12:03:49;;;;;;;19.97;15.00;;;3.90;99.90;;;;;;4977831;28;20437;-67
2021/01/05 12:06:19;;;;;;;22.70;17.03;;;3.80;99.90;;;;;;4978023;28;21016;-68
2021/01/05 12:08:45;;;;;;;22.33;16.70;;;3.80;99.90;;;;;;4979158;28;20443;-66
2021/01/05 12:11:17;;;;;;;19.10;14.63;;;3.80;99.90;;;;;;4984391;28;20478;-66
2021/01/05 12:13:43;;;;;;;21.57;17.30;;;3.90;99.90;;;;;;4984123;28;20470;-67
2021/01/05 12:16:09;;;;;;;19.50;15.17;;;3.90;99.90;;;;;;4983292;28;20443;-68
2021/01/05 12:18:36;;;;;;;22.00;16.40;;;3.90;99.90;;;;;;4982816;28;20434;-67
2021/01/05 12:21:03;;;;;;;22.00;16.13;;;3.90;99.90;;;;;;4979381;28;20464;-68
2021/01/05 12:23:30;;;;;;;23.00;16.53;;;3.90;99.90;;;;;;4978752;28;20439;-68
2021/01/05 12:25:56;;;;;;;22.77;17.47;;;3.90;99.90;;;;;;4979208;28;20447;-68
2021/01/05 12:28:22;;;;;;;20.90;16.40;;;3.80;99.90;;;;;;4980876;28;20968;-68
2021/01/05 12:30:48;;;;;;;21.80;15.80;;;3.70;99.90;;;;;;4980837;28;20498;-68
2021/01/05 12:33:14;;;;;;;20.97;16.77;;;3.70;99.90;;;;;;4986471;28;20442;-68
2021/01/05 12:35:44;;;;;;;21.87;16.40;;;3.80;99.90;;;;;;4984462;28;20459;-67
2021/01/05 12:38:10;;;;;;;21.10;16.03;;;3.80;99.90;;;;;;4985519;28;20482;-67
2021/01/05 12:40:37;;;;;;;22.37;16.93;;;3.80;99.90;;;;;;4986768;28;20457;-67
2021/01/05 12:43:04;;;;;;;21.00;16.23;;;3.90;99.90;;;;;;4978917;28;20462;-68
2021/01/05 12:45:30;;;;;;;22.47;16.30;;;3.90;99.90;;;;;;4979077;28;20848;-68
2021/01/05 12:47:56;;;;;;;25.13;18.13;;;3.90;99.90;;;;;;4980676;28;20501;-67
2021/01/05 12:50:22;;;;;;;22.20;17.17;;;3.90;99.90;;;;;;4983841;28;20475;-67
2021/01/05 12:52:50;;;;;;;26.43;18.20;;;4.00;99.90;;;;;;4984451;28;20857;-67
2021/01/05 12:55:17;;;;;;;21.83;16.77;;;4.00;99.90;;;;;;4984957;28;20502;-67
2021/01/05 12:57:44;;;;;;;24.67;17.83;;;4.00;99.90;;;;;;4986191;28;20462;-67
2021/01/05 13:00:11;;;;;;;20.60;15.47;;;4.00;99.90;;;;;;4983250;28;20439;-68
2021/01/05 13:02:37;;;;;;;22.80;17.03;;;4.00;99.90;;;;;;4975959;28;20486;-66
2021/01/05 13:05:05;;;;;;;23.73;17.23;;;3.90;99.90;;;;;;4976155;28;20458;-67
2021/01/05 13:07:31;;;;;;;23.17;17.87;;;3.70;99.90;;;;;;4977807;28;20528;-67
2021/01/05 13:09:58;;;;;;;20.50;16.50;;;3.60;99.90;;;;;;4983390;28;20454;-67
2021/01/05 13:12:25;;;;;;;20.50;14.47;;;3.70;99.90;;;;;;4981916;28;20788;-66
2021/01/05 13:14:52;;;;;;;17.23;15.03;;;3.70;99.90;;;;;;4976362;28;20549;-67
2021/01/05 13:17:18;;;;;;;19.03;15.13;;;3.60;99.90;;;;;;4976158;28;20433;-66
2021/01/05 13:19:44;;;;;;;18.07;13.80;;;3.70;99.90;;;;;;4975789;28;20451;-67
2021/01/05 13:22:10;;;;;;;18.97;15.30;;;3.70;99.90;;;;;;4975581;28;20522;-67
2021/01/05 13:24:36;;;;;;;15.53;13.03;;;3.80;99.90;;;;;;4975987;28;20936;-66
2021/01/05 13:27:05;;;;;;;16.77;12.80;;;3.90;99.90;;;;;;4975662;28;20454;-66
2021/01/05 13:29:33;;;;;;;17.47;13.90;;;4.00;99.90;;;;;;4975985;28;20450;-67
2021/01/05 13:32:03;;;;;;;21.00;15.77;;;4.10;99.90;;;;;;4975778;28;20482;-67
2021/01/05 13:34:31;;;;;;;20.93;16.57;;;4.00;99.90;;;;;;4975621;28;20459;-67
2021/01/05 13:36:59;;;;;;;22.50;18.80;;;3.90;99.90;;;;;;4975127;28;20463;-66
2021/01/05 13:39:26;;;;;;;22.67;16.00;;;3.90;99.90;;;;;;4975413;28;20610;-66
2021/01/05 13:41:52;;;;;;;21.97;16.30;;;4.00;99.90;;;;;;4975423;28;20471;-67
2021/01/05 13:44:18;;;;;;;19.77;15.80;;;4.00;99.90;;;;;;4975596;28;20461;-66
2021/01/05 13:46:44;;;;;;;17.77;14.63;;;4.00;99.90;;;;;;4975452;28;20459;-66
2021/01/05 13:49:17;;;;;;;22.93;16.03;;;4.00;99.90;;;;;;4975759;28;20484;-66
2021/01/05 13:51:44;;;;;;;23.60;17.07;;;3.90;99.90;;;;;;4975895;28;20482;-65
2021/01/05 13:54:16;;;;;;;20.13;14.80;;;3.80;99.90;;;;;;4976268;28;20439;-66
2021/01/05 13:56:42;;;;;;;18.80;15.00;;;3.80;99.90;;;;;;4975362;28;20439;-67
2021/01/05 13:59:08;;;;;;;22.00;16.30;;;3.90;99.90;;;;;;4975240;28;20465;-66
2021/01/05 14:01:35;;;;;;;21.87;15.20;;;3.90;99.90;;;;;;4975143;28;20480;-66
2021/01/05 14:04:01;;;;;;;18.00;14.33;;;3.90;99.90;;;;;;4980226;28;20435;-67
2021/01/05 14:06:30;;;;;;;17.77;15.03;;;3.90;99.90;;;;;;4993219;28;20939;-67
2021/01/05 14:08:59;;;;;;;16.67;13.57;;;4.00;99.90;;;;;;4994858;28;20454;-65
2021/01/05 14:11:27;;;;;;;20.13;16.13;;;4.00;99.90;;;;;;4995539;28;20471;-65
2021/01/05 14:13:53;;;;;;;23.13;15.30;;;4.10;99.90;;;;;;4980481;28;20428;-64
2021/01/05 14:16:21;;;;;;;17.10;14.37;;;4.10;99.90;;;;;;4975548;28;20485;-66
2021/01/05 14:18:50;;;;;;;19.97;15.13;;;4.00;99.90;;;;;;4975572;28;20239;-66
2021/01/05 14:21:26;;;;;;;17.20;14.23;;;4.00;99.90;;;;;;4975319;28;20467;-66
2021/01/05 14:23:53;;;;;;;18.43;14.60;;;3.90;99.90;;;;;;4975145;28;20443;-65
2021/01/05 14:26:19;;;;;;;17.20;13.47;;;4.00;99.90;;;;;;4975424;28;20440;-64
2021/01/05 14:28:46;;;;;;;18.97;13.90;;;4.00;99.90;;;;;;4975308;28;20453;-65
2021/01/05 14:31:12;;;;;;;20.00;14.20;;;3.90;99.90;;;;;;4974669;28;20474;-65
2021/01/05 14:33:39;;;;;;;18.87;14.10;;;3.90;99.90;;;;;;4975109;28;20458;-64
2021/01/05 14:36:06;;;;;;;17.70;14.27;;;3.90;99.90;;;;;;4975053;28;20491;-65
2021/01/05 14:38:32;;;;;;;18.10;14.00;;;3.80;99.90;;;;;;4975047;28;20463;-65
2021/01/05 14:40:59;;;;;;;18.77;14.27;;;3.90;99.90;;;;;;4975208;28;20481;-64
2021/01/05 14:43:26;;;;;;;17.37;13.70;;;3.80;99.90;;;;;;4974892;28;20439;-65
2021/01/05 14:45:52;;;;;;;17.60;14.30;;;3.90;99.90;;;;;;4974914;28;20496;-66
2021/01/05 14:48:18;;;;;;;18.77;14.70;;;3.90;99.90;;;;;;4978190;28;20462;-66
2021/01/05 14:50:44;;;;;;;25.20;15.70;;;3.80;99.90;;;;;;4978138;28;20482;-69
2021/01/05 14:53:11;;;;;;;18.30;14.97;;;4.00;99.90;;;;;;4979307;28;20471;-67
2021/01/05 14:55:38;;;;;;;20.97;15.40;;;4.10;99.90;;;;;;4978830;28;20450;-67
2021/01/05 14:58:05;;;;;;;21.37;16.10;;;4.20;99.90;;;;;;4978482;28;20452;-68
2021/01/05 15:00:31;;;;;;;16.90;13.83;;;4.20;99.90;;;;;;4977821;28;20458;-66
2021/01/05 15:02:57;;;;;;;19.60;15.80;;;4.60;99.90;;;;;;4978119;28;20431;-67
2021/01/05 15:05:23;;;;;;;19.23;15.20;;;4.70;99.90;;;;;;4978293;28;20458;-69
2021/01/05 15:07:50;;;;;;;17.60;14.73;;;4.70;99.90;;;;;;4978823;28;20461;-69
2021/01/05 15:10:16;;;;;;;18.00;14.63;;;4.80;99.90;;;;;;4977523;28;20454;-67
2021/01/05 15:12:43;;;;;;;19.50;15.30;;;4.70;99.90;;;;;;4978133;28;20443;-67
2021/01/05 15:15:13;;;;;;;19.80;15.10;;;4.70;99.90;;;;;;4977972;28;20956;-66
2021/01/05 15:17:39;;;;;;;20.97;16.30;;;4.40;99.90;;;;;;4978064;28;20459;-67
2021/01/05 15:20:07;;;;;;;21.67;16.00;;;4.30;99.90;;;;;;4977452;28;20895;-67
2021/01/05 15:22:34;;;;;;;21.57;17.53;;;4.20;99.90;;;;;;4977932;28;20475;-66
2021/01/05 15:25:01;;;;;;;22.47;15.73;;;4.20;99.90;;;;;;4978317;28;20490;-67
2021/01/05 15:27:27;;;;;;;23.33;16.77;;;4.10;99.90;;;;;;4978000;28;20479;-68
2021/01/05 15:29:53;;;;;;;23.33;18.03;;;4.10;99.90;;;;;;4978359;28;20454;-67
2021/01/05 15:32:20;;;;;;;24.43;17.87;;;4.10;99.90;;;;;;4977949;28;20486;-68
2021/01/05 15:34:46;;;;;;;22.47;16.40;;;4.10;99.90;;;;;;4977777;28;20456;-67
2021/01/05 15:37:12;;;;;;;23.40;17.70;;;4.10;99.90;;;;;;4977611;28;20530;-69
2021/01/05 15:39:38;;;;;;;21.70;17.60;;;4.10;99.90;;;;;;4977475;28;20446;-67
2021/01/05 15:42:05;;;;;;;22.27;17.10;;;4.20;99.90;;;;;;4978993;28;20470;-67
2021/01/05 15:44:32;;;;;;;24.40;18.53;;;4.00;99.90;;;;;;4980248;28;20461;-68
2021/01/05 15:47:01;;;;;;;24.23;17.67;;;3.90;99.90;;;;;;4978850;28;20557;-66
2021/01/05 15:49:28;;;;;;;24.37;16.53;;;3.80;99.90;;;;;;4979392;28;20458;-67
2021/01/05 15:51:54;;;;;;;24.43;17.23;;;3.80;99.90;;;;;;4979913;28;20923;-67
2021/01/05 15:54:22;;;;;;;23.97;17.20;;;3.70;99.90;;;;;;4977277;28;20465;-66
2021/01/05 15:56:49;;;;;;;24.13;18.33;;;3.60;99.90;;;;;;4979382;28;20459;-66
2021/01/05 15:59:15;;;;;;;21.30;16.50;;;3.50;99.90;;;;;;4981959;28;20463;-67
2021/01/05 16:01:41;;;;;;;24.37;17.30;;;3.60;99.90;;;;;;4982395;28;20482;-67
2021/01/05 16:04:09;;;;;;;21.93;15.53;;;3.60;99.90;;;;;;4982068;28;20466;-65
2021/01/05 16:06:41;;;;;;;19.13;16.93;;;3.60;99.90;;;;;;4979082;28;20961;-66
2021/01/05 16:09:09;;;;;;;20.50;15.73;;;3.60;99.90;;;;;;4977167;28;20436;-66
2021/01/05 16:11:37;;;;;;;21.00;16.10;;;3.50;99.90;;;;;;4976687;28;20779;-65
2021/01/05 16:14:05;;;;;;;20.93;16.63;;;3.40;99.90;;;;;;4978153;28;20450;-66
2021/01/05 16:16:32;;;;;;;24.57;17.50;;;3.50;99.90;;;;;;4980741;28;20462;-67
2021/01/05 16:18:59;;;;;;;18.73;15.77;;;3.50;99.90;;;;;;4978053;28;20949;-64
2021/01/05 16:21:27;;;;;;;19.43;14.60;;;3.40;99.90;;;;;;4977505;28;20452;-64
2021/01/05 16:23:55;;;;;;;20.33;15.53;;;3.40;99.90;;;;;;4977206;28;20891;-64
2021/01/05 16:26:24;;;;;;;18.90;14.90;;;3.40;99.90;;;;;;4976525;28;20458;-65
2021/01/05 16:28:50;;;;;;;16.50;14.20;;;3.40;99.90;;;;;;4983056;28;20498;-65
2021/01/05 16:31:17;;;;;;;22.50;17.50;;;3.40;99.90;;;;;;4977715;28;20483;-66
2021/01/05 16:33:43;;;;;;;16.70;14.37;;;3.40;99.90;;;;;;4977869;28;20461;-66
2021/01/05 16:36:10;;;;;;;19.70;15.50;;;3.40;99.90;;;;;;4976874;28;20926;-64
2021/01/05 16:38:36;;;;;;;17.10;14.43;;;3.50;99.90;;;;;;4977420;28;20464;-65
2021/01/05 16:41:03;;;;;;;15.83;14.23;;;3.50;99.90;;;;;;4976697;28;20479;-65
2021/01/05 16:43:31;;;;;;;16.03;13.80;;;3.50;99.90;;;;;;4978657;28;20441;-66
2021/01/05 16:45:58;;;;;;;17.70;13.80;;;3.60;99.90;;;;;;4977245;28;20454;-64
2021/01/05 16:48:24;;;;;;;15.70;13.40;;;3.60;99.90;;;;;;4977527;28;20865;-65
2021/01/05 16:50:51;;;;;;;17.40;14.30;;;3.50;99.90;;;;;;4976477;28;20486;-65
2021/01/05 16:53:18;;;;;;;18.67;15.33;;;3.50;99.90;;;;;;4976277;28;20454;-64
2021/01/05 16:55:45;;;;;;;19.10;14.93;;;3.50;99.90;;;;;;4976396;28;20463;-65
2021/01/05 16:58:18;;;;;;;17.20;14.63;;;3.50;99.90;;;;;;4976300;28;20458;-66
2021/01/05 17:00:44;;;;;;;19.40;15.53;;;3.50;99.90;;;;;;4975885;28;20517;-65
2021/01/05 17:03:10;;;;;;;18.73;13.93;;;3.50;99.90;;;;;;4976076;28;20435;-64
2021/01/05 17:05:37;;;;;;;15.90;13.67;;;3.60;99.90;;;;;;4976037;28;20455;-66
2021/01/05 17:08:04;;;;;;;20.90;15.40;;;3.60;99.90;;;;;;4976131;28;20461;-66
2021/01/05 17:10:32;;;;;;;19.00;15.33;;;3.60;99.90;;;;;;4974917;28;20489;-65
2021/01/05 17:12:59;;;;;;;18.27;13.60;;;3.70;99.90;;;;;;4975564;28;20570;-65
2021/01/05 17:15:28;;;;;;;17.07;14.20;;;3.70;99.90;;;;;;4975494;28;20953;-65
2021/01/05 17:17:55;;;;;;;17.97;14.90;;;3.70;99.90;;;;;;4976009;28;20465;-64
2021/01/05 17:20:22;;;;;;;20.50;14.70;;;3.70;99.90;;;;;;4975775;28;20455;-65
2021/01/05 17:22:49;;;;;;;19.90;14.97;;;3.80;99.90;;;;;;4976194;28;20493;-64
2021/01/05 17:25:17;;;;;;;18.53;15.13;;;3.70;99.90;;;;;;4975711;28;20509;-65
2021/01/05 17:27:44;;;;;;;15.23;13.47;;;3.80;99.90;;;;;;4975655;28;20458;-65
2021/01/05 17:30:15;;;;;;;19.50;14.80;;;3.70;99.90;;;;;;4975441;28;20458;-66
2021/01/05 17:32:42;;;;;;;17.63;14.83;;;3.60;99.90;;;;;;4975920;28;20505;-64
2021/01/05 17:35:09;;;;;;;19.67;15.53;;;3.60;99.90;;;;;;4975830;28;20482;-64
2021/01/05 17:37:35;;;;;;;19.90;15.03;;;3.70;99.90;;;;;;4975050;28;20925;-64
2021/01/05 17:40:03;;;;;;;21.67;17.20;;;3.70;99.90;;;;;;4976167;28;20454;-64
2021/01/05 17:42:29;;;;;;;21.87;17.10;;;3.60;99.90;;;;;;4975312;28;20482;-64